createdAt,value
2017-10-19T00:00:07.291Z,1007.48
2017-10-19T00:00:47.827Z,1007.48
2017-10-19T00:01:28.358Z,1007.47
2017-10-19T00:02:08.900Z,1007.47
2017-10-19T00:02:49.434Z,1007.51
2017-10-19T00:03:29.973Z,1007.52
2017-10-19T00:04:10.509Z,1007.47
2017-10-19T00:04:51.040Z,1007.49
2017-10-19T00:05:31.572Z,1007.49
2017-10-19T00:06:12.107Z,1007.47
2017-10-19T00:06:52.643Z,1007.45
2017-10-19T00:07:33.170Z,1007.4
2017-10-19T00:08:13.708Z,1007.39
2017-10-19T00:08:54.263Z,1007.36
2017-10-19T00:09:34.787Z,1007.37
2017-10-19T00:10:15.316Z,1007.35
2017-10-19T00:10:55.901Z,1007.34
2017-10-19T00:11:36.380Z,1007.34
2017-10-19T00:12:16.917Z,1007.32
2017-10-19T00:12:57.450Z,1007.3
2017-10-19T00:13:37.986Z,1007.31
2017-10-19T00:14:18.523Z,1007.29
2017-10-19T00:14:59.059Z,1007.27
2017-10-19T00:15:39.609Z,1007.3
2017-10-19T00:16:20.152Z,1007.27
2017-10-19T00:17:00.686Z,1007.26
2017-10-19T00:17:41.228Z,1007.25
2017-10-19T00:18:21.767Z,1007.27
2017-10-19T00:19:02.301Z,1007.27
2017-10-19T00:19:42.841Z,1007.3
2017-10-19T00:20:23.369Z,1007.27
2017-10-19T00:21:03.906Z,1007.29
2017-10-19T00:21:44.442Z,1007.27
2017-10-19T00:22:24.982Z,1007.28
2017-10-19T00:23:05.521Z,1007.31
2017-10-19T00:23:46.053Z,1007.32
2017-10-19T00:24:26.585Z,1007.29
2017-10-19T00:25:07.116Z,1007.26
2017-10-19T00:25:47.638Z,1007.32
2017-10-19T00:26:28.179Z,1007.29
2017-10-19T00:27:08.707Z,1007.32
2017-10-19T00:27:49.235Z,1007.3
2017-10-19T00:28:29.768Z,1007.29
2017-10-19T00:29:12.075Z,1007.24
2017-10-19T00:29:52.613Z,1007.24
2017-10-19T00:30:33.166Z,1007.25
2017-10-19T00:31:13.707Z,1007.21
2017-10-19T00:31:54.240Z,1007.18
2017-10-19T00:32:34.781Z,1007.2
2017-10-19T00:33:15.321Z,1007.21
2017-10-19T00:33:55.829Z,1007.19
2017-10-19T00:34:36.367Z,1007.2
2017-10-19T00:35:16.909Z,1007.18
2017-10-19T00:35:57.443Z,1007.16
2017-10-19T00:36:37.985Z,1007.2
2017-10-19T00:37:18.530Z,1007.15
2017-10-19T00:37:59.046Z,1007.14
2017-10-19T00:38:39.583Z,1007.21
2017-10-19T00:39:20.114Z,1007.22
2017-10-19T00:40:00.649Z,1007.21
2017-10-19T00:40:41.181Z,1007.19
2017-10-19T00:41:21.704Z,1007.19
2017-10-19T00:42:02.244Z,1007.18
2017-10-19T00:42:42.772Z,1007.2
2017-10-19T00:43:23.322Z,1007.19
2017-10-19T00:44:03.845Z,1007.21
2017-10-19T00:44:44.365Z,1007.18
2017-10-19T00:45:24.906Z,1007.19
2017-10-19T00:46:05.446Z,1007.2
2017-10-19T00:46:46.002Z,1007.19
2017-10-19T00:47:26.518Z,1007.18
2017-10-19T00:48:07.044Z,1007.2
2017-10-19T00:48:47.583Z,1007.21
2017-10-19T00:49:28.111Z,1007.21
2017-10-19T00:50:08.667Z,1007.21
2017-10-19T00:50:49.190Z,1007.18
2017-10-19T00:51:29.728Z,1007.17
2017-10-19T00:52:10.272Z,1007.18
2017-10-19T00:52:50.800Z,1007.19
2017-10-19T00:53:31.327Z,1007.18
2017-10-19T00:54:11.894Z,1007.16
2017-10-19T00:54:52.421Z,1007.2
2017-10-19T00:55:32.953Z,1007.16
2017-10-19T00:56:13.491Z,1007.16
2017-10-19T00:56:54.014Z,1007.12
2017-10-19T00:57:34.552Z,1007.15
2017-10-19T00:58:15.086Z,1007.16
2017-10-19T00:58:55.616Z,1007.11
2017-10-19T00:59:36.149Z,1007.11
2017-10-19T01:00:16.680Z,1007.08
2017-10-19T01:00:57.220Z,1007.05
2017-10-19T01:01:37.755Z,1007.08
2017-10-19T01:02:18.296Z,1007.05
2017-10-19T01:02:58.824Z,1007.04
2017-10-19T01:03:39.364Z,1006.99
2017-10-19T01:04:19.887Z,1006.99
2017-10-19T01:05:00.424Z,1007.03
2017-10-19T01:05:40.962Z,1007.01
2017-10-19T01:06:21.485Z,1007
2017-10-19T01:07:02.042Z,1007.01
2017-10-19T01:07:42.572Z,1006.98
2017-10-19T01:08:23.200Z,1006.99
2017-10-19T01:09:03.776Z,1007
2017-10-19T01:09:44.323Z,1006.99
2017-10-19T01:10:24.852Z,1006.98
2017-10-19T01:11:05.394Z,1006.96
2017-10-19T01:11:45.930Z,1007.01
2017-10-19T01:12:26.462Z,1006.96
2017-10-19T01:13:07.009Z,1007
2017-10-19T01:13:47.538Z,1006.98
2017-10-19T01:14:28.070Z,1006.97
2017-10-19T01:15:08.607Z,1007.01
2017-10-19T01:15:49.142Z,1007.02
2017-10-19T01:16:29.679Z,1006.99
2017-10-19T01:17:10.223Z,1006.99
2017-10-19T01:17:50.753Z,1007.03
2017-10-19T01:18:31.296Z,1007.03
2017-10-19T01:19:11.816Z,1006.98
2017-10-19T01:19:52.358Z,1006.97
2017-10-19T01:20:32.894Z,1006.98
2017-10-19T01:21:13.434Z,1006.96
2017-10-19T01:21:53.997Z,1006.97
2017-10-19T01:22:34.500Z,1006.94
2017-10-19T01:23:15.041Z,1006.93
2017-10-19T01:23:55.582Z,1006.92
2017-10-19T01:24:36.126Z,1006.9
2017-10-19T01:25:16.655Z,1006.91
2017-10-19T01:25:57.183Z,1006.89
2017-10-19T01:26:37.728Z,1006.89
2017-10-19T01:27:18.266Z,1006.9
2017-10-19T01:27:58.794Z,1006.89
2017-10-19T01:28:39.342Z,1006.86
2017-10-19T01:29:19.866Z,1006.86
2017-10-19T01:30:00.411Z,1006.85
2017-10-19T01:30:40.947Z,1006.85
2017-10-19T01:31:21.483Z,1006.88
2017-10-19T01:32:02.030Z,1006.89
2017-10-19T01:32:42.596Z,1006.89
2017-10-19T01:33:23.135Z,1006.87
2017-10-19T01:34:03.688Z,1006.89
2017-10-19T01:34:44.204Z,1006.88
2017-10-19T01:35:24.745Z,1006.9
2017-10-19T01:36:05.281Z,1006.89
2017-10-19T01:36:45.832Z,1006.9
2017-10-19T01:37:26.368Z,1006.89
2017-10-19T01:38:06.900Z,1006.87
2017-10-19T01:38:47.440Z,1006.91
2017-10-19T01:39:27.964Z,1006.89
2017-10-19T01:40:08.518Z,1006.9
2017-10-19T01:40:49.059Z,1006.91
2017-10-19T01:41:29.585Z,1006.92
2017-10-19T01:42:10.116Z,1006.92
2017-10-19T01:42:50.655Z,1006.91
2017-10-19T01:43:31.195Z,1006.91
2017-10-19T01:44:11.736Z,1006.88
2017-10-19T01:44:52.260Z,1006.92
2017-10-19T01:45:32.798Z,1006.96
2017-10-19T01:46:13.342Z,1006.94
2017-10-19T01:46:53.876Z,1006.94
2017-10-19T01:47:34.409Z,1006.97
2017-10-19T01:48:14.949Z,1006.97
2017-10-19T01:48:55.473Z,1007
2017-10-19T01:49:36.015Z,1006.93
2017-10-19T01:50:16.548Z,1006.95
2017-10-19T01:50:57.082Z,1006.96
2017-10-19T01:51:37.637Z,1006.96
2017-10-19T01:52:18.252Z,1006.94
2017-10-19T01:52:58.776Z,1006.93
2017-10-19T01:53:39.310Z,1006.91
2017-10-19T01:54:19.836Z,1006.91
2017-10-19T01:55:00.372Z,1006.91
2017-10-19T01:55:40.915Z,1006.93
2017-10-19T01:56:21.432Z,1006.91
2017-10-19T01:57:01.971Z,1006.91
2017-10-19T01:57:42.484Z,1006.91
2017-10-19T01:58:23.080Z,1006.93
2017-10-19T01:59:03.601Z,1006.9
2017-10-19T01:59:44.299Z,1006.91
2017-10-19T02:00:24.840Z,1006.93
2017-10-19T02:01:05.370Z,1006.91
2017-10-19T02:01:45.901Z,1006.9
2017-10-19T02:02:26.438Z,1006.89
2017-10-19T02:03:06.988Z,1006.93
2017-10-19T02:03:47.526Z,1006.92
2017-10-19T02:04:28.062Z,1006.89
2017-10-19T02:05:08.596Z,1006.91
2017-10-19T02:05:49.131Z,1006.91
2017-10-19T02:06:29.669Z,1006.84
2017-10-19T02:07:10.199Z,1006.87
2017-10-19T02:07:50.734Z,1006.84
2017-10-19T02:08:31.325Z,1006.85
2017-10-19T02:09:11.866Z,1006.87
2017-10-19T02:09:52.402Z,1006.88
2017-10-19T02:10:32.939Z,1006.9
2017-10-19T02:11:13.473Z,1006.88
2017-10-19T02:11:53.997Z,1006.84
2017-10-19T02:12:34.550Z,1006.82
2017-10-19T02:13:15.079Z,1006.87
2017-10-19T02:13:55.613Z,1006.86
2017-10-19T02:14:36.228Z,1006.86
2017-10-19T02:15:16.757Z,1006.89
2017-10-19T02:15:57.290Z,1006.87
2017-10-19T02:16:37.840Z,1006.84
2017-10-19T02:17:18.360Z,1006.89
2017-10-19T02:17:58.909Z,1006.9
2017-10-19T02:18:39.434Z,1006.91
2017-10-19T02:19:19.972Z,1006.91
2017-10-19T02:20:00.533Z,1006.9
2017-10-19T02:20:41.050Z,1006.89
2017-10-19T02:21:21.577Z,1006.9
2017-10-19T02:22:02.115Z,1006.91
2017-10-19T02:22:42.636Z,1006.91
2017-10-19T02:23:23.151Z,1006.89
2017-10-19T02:24:03.681Z,1006.9
2017-10-19T02:24:44.272Z,1006.9
2017-10-19T02:25:24.795Z,1006.88
2017-10-19T02:26:05.390Z,1006.87
2017-10-19T02:26:45.962Z,1006.93
2017-10-19T02:27:26.491Z,1006.9
2017-10-19T02:28:07.013Z,1006.93
2017-10-19T02:28:47.542Z,1006.91
2017-10-19T02:29:28.078Z,1006.91
2017-10-19T02:30:08.615Z,1006.95
2017-10-19T02:30:49.135Z,1006.93
2017-10-19T02:31:29.696Z,1006.94
2017-10-19T02:32:10.237Z,1006.9
2017-10-19T02:32:50.771Z,1006.91
2017-10-19T02:33:31.288Z,1006.89
2017-10-19T02:34:11.826Z,1006.88
2017-10-19T02:34:52.385Z,1006.86
2017-10-19T02:35:32.921Z,1006.86
2017-10-19T02:36:13.457Z,1006.84
2017-10-19T02:36:53.999Z,1006.85
2017-10-19T02:37:34.522Z,1006.83
2017-10-19T02:38:15.066Z,1006.81
2017-10-19T02:38:55.617Z,1006.79
2017-10-19T02:39:36.136Z,1006.78
2017-10-19T02:40:16.683Z,1006.79
2017-10-19T02:40:57.201Z,1006.81
2017-10-19T02:41:37.746Z,1006.79
2017-10-19T02:42:18.270Z,1006.79
2017-10-19T02:42:58.798Z,1006.78
2017-10-19T02:43:39.335Z,1006.78
2017-10-19T02:44:19.856Z,1006.81
2017-10-19T02:45:00.408Z,1006.8
2017-10-19T02:45:40.921Z,1006.82
2017-10-19T02:46:21.465Z,1006.81
2017-10-19T02:47:01.987Z,1006.81
2017-10-19T02:47:42.535Z,1006.84
2017-10-19T02:48:23.070Z,1006.84
2017-10-19T02:49:03.600Z,1006.82
2017-10-19T02:49:44.314Z,1006.84
2017-10-19T02:50:24.844Z,1006.85
2017-10-19T02:51:05.470Z,1006.84
2017-10-19T02:51:46.000Z,1006.86
2017-10-19T02:52:26.543Z,1006.87
2017-10-19T02:53:07.079Z,1006.85
2017-10-19T02:53:47.611Z,1006.89
2017-10-19T02:54:28.148Z,1006.89
2017-10-19T02:55:08.668Z,1006.87
2017-10-19T02:55:49.208Z,1006.9
2017-10-19T02:56:29.736Z,1006.9
2017-10-19T02:57:10.269Z,1006.89
2017-10-19T02:57:50.806Z,1006.92
2017-10-19T02:58:31.350Z,1006.87
2017-10-19T02:59:11.875Z,1006.87
2017-10-19T02:59:52.412Z,1006.88
2017-10-19T03:00:32.951Z,1006.85
2017-10-19T03:01:13.482Z,1006.84
2017-10-19T03:01:54.035Z,1006.82
2017-10-19T03:02:34.567Z,1006.79
2017-10-19T03:03:15.111Z,1006.85
2017-10-19T03:03:55.651Z,1006.8
2017-10-19T03:04:36.187Z,1006.81
2017-10-19T03:05:16.732Z,1006.79
2017-10-19T03:05:57.277Z,1006.78
2017-10-19T03:06:37.784Z,1006.8
2017-10-19T03:07:18.341Z,1006.79
2017-10-19T03:07:58.856Z,1006.8
2017-10-19T03:08:39.428Z,1006.8
2017-10-19T03:09:19.961Z,1006.79
2017-10-19T03:10:00.497Z,1006.81
2017-10-19T03:10:41.040Z,1006.8
2017-10-19T03:11:21.582Z,1006.8
2017-10-19T03:12:02.098Z,1006.81
2017-10-19T03:12:42.632Z,1006.81
2017-10-19T03:13:23.166Z,1006.79
2017-10-19T03:14:03.702Z,1006.81
2017-10-19T03:14:44.298Z,1006.81
2017-10-19T03:15:24.845Z,1006.81
2017-10-19T03:16:05.417Z,1006.78
2017-10-19T03:16:45.955Z,1006.8
2017-10-19T03:17:26.483Z,1006.8
2017-10-19T03:18:07.036Z,1006.82
2017-10-19T03:18:47.582Z,1006.77
2017-10-19T03:19:28.115Z,1006.79
2017-10-19T03:20:08.652Z,1006.81
2017-10-19T03:20:49.193Z,1006.78
2017-10-19T03:21:29.728Z,1006.75
2017-10-19T03:22:10.274Z,1006.76
2017-10-19T03:22:50.810Z,1006.77
2017-10-19T03:23:31.363Z,1006.76
2017-10-19T03:24:11.894Z,1006.76
2017-10-19T03:24:52.442Z,1006.75
2017-10-19T03:25:32.979Z,1006.74
2017-10-19T03:26:13.528Z,1006.75
2017-10-19T03:26:54.034Z,1006.78
2017-10-19T03:27:34.563Z,1006.76
2017-10-19T03:28:15.100Z,1006.81
2017-10-19T03:28:55.628Z,1006.78
2017-10-19T03:29:36.164Z,1006.79
2017-10-19T03:30:16.716Z,1006.77
2017-10-19T03:30:57.261Z,1006.77
2017-10-19T03:31:37.788Z,1006.76
2017-10-19T03:32:18.397Z,1006.78
2017-10-19T03:32:58.891Z,1006.77
2017-10-19T03:33:39.425Z,1006.77
2017-10-19T03:34:20.118Z,1006.76
2017-10-19T03:35:00.673Z,1006.73
2017-10-19T03:35:41.209Z,1006.73
2017-10-19T03:36:21.731Z,1006.73
2017-10-19T03:37:02.275Z,1006.69
2017-10-19T03:37:42.799Z,1006.67
2017-10-19T03:38:23.335Z,1006.66
2017-10-19T03:39:03.862Z,1006.64
2017-10-19T03:39:44.378Z,1006.66
2017-10-19T03:40:24.925Z,1006.64
2017-10-19T03:41:05.706Z,1006.63
2017-10-19T03:41:46.600Z,1006.6
2017-10-19T03:42:27.460Z,1006.63
2017-10-19T03:43:08.498Z,1006.57
2017-10-19T03:43:49.909Z,1006.55
2017-10-19T03:44:30.718Z,1006.57
2017-10-19T03:45:11.497Z,1006.59
2017-10-19T03:45:52.038Z,1006.6
2017-10-19T03:46:32.576Z,1006.6
2017-10-19T03:47:14.245Z,1006.58
2017-10-19T03:47:55.981Z,1006.6
2017-10-19T03:48:38.065Z,1006.56
2017-10-19T03:49:20.276Z,1006.58
2017-10-19T03:50:01.500Z,1006.57
2017-10-19T03:50:42.061Z,1006.61
2017-10-19T03:51:22.622Z,1006.62
2017-10-19T03:52:03.161Z,1006.58
2017-10-19T03:52:43.688Z,1006.58
2017-10-19T03:53:24.224Z,1006.6
2017-10-19T03:54:04.753Z,1006.6
2017-10-19T03:54:45.285Z,1006.63
2017-10-19T03:55:25.826Z,1006.6
2017-10-19T03:56:06.364Z,1006.64
2017-10-19T03:56:46.900Z,1006.62
2017-10-19T03:57:27.408Z,1006.63
2017-10-19T03:58:07.952Z,1006.61
2017-10-19T03:58:48.485Z,1006.6
2017-10-19T03:59:29.026Z,1006.58
2017-10-19T04:00:09.581Z,1006.59
2017-10-19T04:00:50.164Z,1006.57
2017-10-19T04:01:30.682Z,1006.58
2017-10-19T04:02:11.250Z,1006.6
2017-10-19T04:02:51.771Z,1006.59
2017-10-19T04:03:32.309Z,1006.56
2017-10-19T04:04:12.852Z,1006.58
2017-10-19T04:04:53.383Z,1006.55
2017-10-19T04:05:33.915Z,1006.53
2017-10-19T04:06:14.460Z,1006.55
2017-10-19T04:06:54.993Z,1006.55
2017-10-19T04:07:35.528Z,1006.52
2017-10-19T04:08:16.073Z,1006.51
2017-10-19T04:08:56.588Z,1006.53
2017-10-19T04:09:37.095Z,1006.48
2017-10-19T04:10:17.611Z,1006.49
2017-10-19T04:10:58.155Z,1006.48
2017-10-19T04:11:38.669Z,1006.48
2017-10-19T04:12:19.205Z,1006.46
2017-10-19T04:12:59.733Z,1006.44
2017-10-19T04:13:40.245Z,1006.45
2017-10-19T04:14:20.769Z,1006.44
2017-10-19T04:15:01.314Z,1006.42
2017-10-19T04:15:41.830Z,1006.4
2017-10-19T04:16:22.368Z,1006.44
2017-10-19T04:17:02.924Z,1006.44
2017-10-19T04:17:43.446Z,1006.39
2017-10-19T04:18:23.976Z,1006.4
2017-10-19T04:19:04.511Z,1006.41
2017-10-19T04:19:45.044Z,1006.39
2017-10-19T04:20:25.586Z,1006.39
2017-10-19T04:21:07.263Z,1006.42
2017-10-19T04:21:49.685Z,1006.42
2017-10-19T04:22:32.144Z,1006.38
2017-10-19T04:23:14.565Z,1006.41
2017-10-19T04:23:56.398Z,1006.43
2017-10-19T04:24:37.673Z,1006.42
2017-10-19T04:25:18.226Z,1006.4
2017-10-19T04:25:58.756Z,1006.39
2017-10-19T04:26:39.266Z,1006.34
2017-10-19T04:27:19.797Z,1006.37
2017-10-19T04:28:00.314Z,1006.34
2017-10-19T04:28:40.837Z,1006.31
2017-10-19T04:29:21.372Z,1006.3
2017-10-19T04:30:01.907Z,1006.25
2017-10-19T04:30:42.426Z,1006.29
2017-10-19T04:31:22.973Z,1006.26
2017-10-19T04:32:03.556Z,1006.25
2017-10-19T04:32:44.129Z,1006.26
2017-10-19T04:33:24.608Z,1006.26
2017-10-19T04:34:05.124Z,1006.22
2017-10-19T04:34:45.693Z,1006.2
2017-10-19T04:35:26.135Z,1006.22
2017-10-19T04:36:08.475Z,1006.21
2017-10-19T04:36:50.651Z,1006.19
2017-10-19T04:37:33.236Z,1006.28
2017-10-19T04:38:14.140Z,1006.25
2017-10-19T04:38:54.666Z,1006.25
2017-10-19T04:39:35.202Z,1006.26
2017-10-19T04:40:15.701Z,1006.27
2017-10-19T04:40:56.228Z,1006.26
2017-10-19T04:41:36.793Z,1006.27
2017-10-19T04:42:17.331Z,1006.28
2017-10-19T04:42:57.862Z,1006.33
2017-10-19T04:43:38.383Z,1006.31
2017-10-19T04:44:18.922Z,1006.31
2017-10-19T04:44:59.444Z,1006.29
2017-10-19T04:45:40.007Z,1006.33
2017-10-19T04:46:20.543Z,1006.31
2017-10-19T04:47:01.292Z,1006.31
2017-10-19T04:47:41.779Z,1006.31
2017-10-19T04:48:22.308Z,1006.27
2017-10-19T04:49:02.849Z,1006.32
2017-10-19T04:49:43.376Z,1006.3
2017-10-19T04:50:23.902Z,1006.32
2017-10-19T04:51:04.771Z,1006.35
2017-10-19T04:51:47.193Z,1006.36
2017-10-19T04:52:29.111Z,1006.3
2017-10-19T04:53:11.604Z,1006.37
2017-10-19T04:53:54.154Z,1006.32
2017-10-19T04:54:35.904Z,1006.38
2017-10-19T04:55:16.435Z,1006.34
2017-10-19T04:55:56.979Z,1006.34
2017-10-19T04:56:37.504Z,1006.36
2017-10-19T04:57:18.032Z,1006.37
2017-10-19T04:57:58.540Z,1006.31
2017-10-19T04:58:39.454Z,1006.36
2017-10-19T04:59:20.372Z,1006.36
2017-10-19T05:00:00.908Z,1006.32
2017-10-19T05:00:41.440Z,1006.35
2017-10-19T05:01:21.983Z,1006.35
2017-10-19T05:02:02.511Z,1006.34
2017-10-19T05:02:43.054Z,1006.4
2017-10-19T05:03:23.588Z,1006.4
2017-10-19T05:04:04.132Z,1006.39
2017-10-19T05:04:44.665Z,1006.39
2017-10-19T05:05:25.221Z,1006.4
2017-10-19T05:06:05.741Z,1006.37
2017-10-19T05:06:46.280Z,1006.39
2017-10-19T05:07:26.859Z,1006.43
2017-10-19T05:08:07.460Z,1006.41
2017-10-19T05:08:47.996Z,1006.41
2017-10-19T05:09:28.573Z,1006.44
2017-10-19T05:10:09.113Z,1006.46
2017-10-19T05:10:49.687Z,1006.43
2017-10-19T05:11:30.223Z,1006.45
2017-10-19T05:12:10.744Z,1006.47
2017-10-19T05:12:51.325Z,1006.44
2017-10-19T05:13:31.847Z,1006.43
2017-10-19T05:14:12.421Z,1006.37
2017-10-19T05:14:52.986Z,1006.4
2017-10-19T05:15:33.501Z,1006.4
2017-10-19T05:16:14.069Z,1006.4
2017-10-19T05:16:54.606Z,1006.37
2017-10-19T05:17:35.135Z,1006.41
2017-10-19T05:18:15.677Z,1006.41
2017-10-19T05:18:56.241Z,1006.36
2017-10-19T05:19:36.768Z,1006.37
2017-10-19T05:20:17.330Z,1006.37
2017-10-19T05:20:57.904Z,1006.35
2017-10-19T05:21:38.437Z,1006.33
2017-10-19T05:22:18.971Z,1006.32
2017-10-19T05:22:59.531Z,1006.33
2017-10-19T05:23:40.073Z,1006.32
2017-10-19T05:24:20.616Z,1006.28
2017-10-19T05:25:01.143Z,1006.29
2017-10-19T05:25:41.660Z,1006.32
2017-10-19T05:26:22.202Z,1006.29
2017-10-19T05:27:02.747Z,1006.3
2017-10-19T05:27:43.275Z,1006.32
2017-10-19T05:28:23.805Z,1006.28
2017-10-19T05:29:04.369Z,1006.33
2017-10-19T05:29:44.908Z,1006.29
2017-10-19T05:30:25.450Z,1006.3
2017-10-19T05:31:06.003Z,1006.27
2017-10-19T05:31:46.549Z,1006.29
2017-10-19T05:32:28.082Z,1006.3
2017-10-19T05:33:08.602Z,1006.29
2017-10-19T05:33:49.154Z,1006.24
2017-10-19T05:34:29.687Z,1006.23
2017-10-19T05:35:10.224Z,1006.27
2017-10-19T05:35:50.752Z,1006.26
2017-10-19T05:36:31.290Z,1006.23
2017-10-19T05:37:14.764Z,1006.2
2017-10-19T05:37:55.295Z,1006.23
2017-10-19T05:38:35.899Z,1006.17
2017-10-19T05:39:17.175Z,1006.17
2017-10-19T05:39:57.652Z,1006.23
2017-10-19T05:40:38.193Z,1006.18
2017-10-19T05:41:18.729Z,1006.19
2017-10-19T05:41:59.250Z,1006.22
2017-10-19T05:42:39.775Z,1006.21
2017-10-19T05:43:21.268Z,1006.2
2017-10-19T05:44:01.847Z,1006.19
2017-10-19T05:44:42.521Z,1006.23
2017-10-19T05:45:23.159Z,1006.26
2017-10-19T05:46:03.690Z,1006.23
2017-10-19T05:46:44.228Z,1006.26
2017-10-19T05:47:24.769Z,1006.25
2017-10-19T05:48:05.298Z,1006.26
2017-10-19T05:48:45.848Z,1006.28
2017-10-19T05:49:26.410Z,1006.27
2017-10-19T05:50:06.918Z,1006.25
2017-10-19T05:50:47.436Z,1006.24
2017-10-19T05:51:27.956Z,1006.26
2017-10-19T05:52:08.466Z,1006.26
2017-10-19T05:52:49.775Z,1006.26
2017-10-19T05:53:30.319Z,1006.3
2017-10-19T05:54:10.824Z,1006.24
2017-10-19T05:54:51.380Z,1006.26
2017-10-19T05:55:31.899Z,1006.27
2017-10-19T05:56:12.449Z,1006.23
2017-10-19T05:56:52.991Z,1006.24
2017-10-19T05:57:33.527Z,1006.29
2017-10-19T05:58:14.077Z,1006.28
2017-10-19T05:58:54.611Z,1006.26
2017-10-19T05:59:35.160Z,1006.29
2017-10-19T06:00:15.670Z,1006.28
2017-10-19T06:00:57.060Z,1006.32
2017-10-19T06:01:37.584Z,1006.28
2017-10-19T06:02:18.133Z,1006.3
2017-10-19T06:02:58.678Z,1006.3
2017-10-19T06:03:39.171Z,1006.29
2017-10-19T06:04:19.700Z,1006.3
2017-10-19T06:05:00.243Z,1006.31
2017-10-19T06:05:40.786Z,1006.3
2017-10-19T06:06:21.327Z,1006.28
2017-10-19T06:07:01.865Z,1006.26
2017-10-19T06:07:42.404Z,1006.26
2017-10-19T06:08:22.924Z,1006.25
2017-10-19T06:09:03.464Z,1006.3
2017-10-19T06:09:44.006Z,1006.22
2017-10-19T06:10:24.536Z,1006.27
2017-10-19T06:11:05.088Z,1006.24
2017-10-19T06:11:45.628Z,1006.26
2017-10-19T06:12:26.177Z,1006.23
2017-10-19T06:13:06.704Z,1006.27
2017-10-19T06:13:47.207Z,1006.27
2017-10-19T06:14:27.799Z,1006.26
2017-10-19T06:15:08.302Z,1006.27
2017-10-19T06:15:48.876Z,1006.32
2017-10-19T06:16:29.339Z,1006.35
2017-10-19T06:17:10.447Z,1006.35
2017-10-19T06:17:50.936Z,1006.36
2017-10-19T06:18:31.414Z,1006.37
2017-10-19T06:19:11.932Z,1006.38
2017-10-19T06:19:52.455Z,1006.38
2017-10-19T06:20:33.001Z,1006.38
2017-10-19T06:21:13.580Z,1006.4
2017-10-19T06:21:54.106Z,1006.36
2017-10-19T06:22:34.669Z,1006.34
2017-10-19T06:23:15.211Z,1006.37
2017-10-19T06:23:55.734Z,1006.34
2017-10-19T06:24:36.227Z,1006.37
2017-10-19T06:25:17.680Z,1006.36
2017-10-19T06:25:58.236Z,1006.36
2017-10-19T06:26:38.711Z,1006.38
2017-10-19T06:27:19.190Z,1006.35
2017-10-19T06:27:59.727Z,1006.4
2017-10-19T06:28:40.198Z,1006.41
2017-10-19T06:29:20.709Z,1006.44
2017-10-19T06:30:01.255Z,1006.4
2017-10-19T06:30:41.777Z,1006.44
2017-10-19T06:31:22.332Z,1006.39
2017-10-19T06:32:02.886Z,1006.41
2017-10-19T06:32:43.454Z,1006.43
2017-10-19T06:33:24.034Z,1006.41
2017-10-19T06:34:04.586Z,1006.44
2017-10-19T06:34:45.183Z,1006.39
2017-10-19T06:35:25.708Z,1006.4
2017-10-19T06:36:06.255Z,1006.4
2017-10-19T06:36:46.771Z,1006.39
2017-10-19T06:37:27.318Z,1006.42
2017-10-19T06:38:07.853Z,1006.45
2017-10-19T06:38:49.190Z,1006.46
2017-10-19T06:39:29.759Z,1006.49
2017-10-19T06:40:10.315Z,1006.48
2017-10-19T06:40:50.865Z,1006.47
2017-10-19T06:41:31.370Z,1006.46
2017-10-19T06:42:11.881Z,1006.53
2017-10-19T06:42:52.427Z,1006.5
2017-10-19T06:43:32.998Z,1006.55
2017-10-19T06:44:13.541Z,1006.57
2017-10-19T06:44:54.066Z,1006.51
2017-10-19T06:45:34.616Z,1006.51
2017-10-19T06:46:15.279Z,1006.52
2017-10-19T06:46:55.823Z,1006.48
2017-10-19T06:47:36.883Z,1006.51
2017-10-19T06:48:17.416Z,1006.52
2017-10-19T06:48:57.980Z,1006.47
2017-10-19T06:49:38.532Z,1006.48
2017-10-19T06:50:19.066Z,1006.49
2017-10-19T06:50:59.567Z,1006.49
2017-10-19T06:51:40.114Z,1006.45
2017-10-19T06:52:20.623Z,1006.51
2017-10-19T06:53:01.149Z,1006.51
2017-10-19T06:53:41.673Z,1006.53
2017-10-19T06:54:22.211Z,1006.54
2017-10-19T06:55:02.750Z,1006.57
2017-10-19T06:55:43.291Z,1006.63
2017-10-19T06:56:23.855Z,1006.62
2017-10-19T06:57:04.360Z,1006.61
2017-10-19T06:57:44.874Z,1006.6
2017-10-19T06:58:25.430Z,1006.6
2017-10-19T06:59:05.980Z,1006.58
2017-10-19T06:59:46.460Z,1006.6
2017-10-19T07:00:26.936Z,1006.55
2017-10-19T07:01:07.461Z,1006.54
2017-10-19T07:01:48.011Z,1006.63
2017-10-19T07:02:28.524Z,1006.58
2017-10-19T07:03:09.074Z,1006.56
2017-10-19T07:03:49.601Z,1006.62
2017-10-19T07:04:30.169Z,1006.65
2017-10-19T07:05:10.698Z,1006.64
2017-10-19T07:05:51.238Z,1006.66
2017-10-19T07:06:31.768Z,1006.64
2017-10-19T07:07:12.304Z,1006.63
2017-10-19T07:07:52.874Z,1006.58
2017-10-19T07:08:33.416Z,1006.61
2017-10-19T07:09:13.941Z,1006.58
2017-10-19T07:09:54.433Z,1006.57
2017-10-19T07:10:34.933Z,1006.59
2017-10-19T07:11:15.444Z,1006.59
2017-10-19T07:11:55.925Z,1006.6
2017-10-19T07:12:36.518Z,1006.58
2017-10-19T07:13:17.022Z,1006.62
2017-10-19T07:13:57.510Z,1006.58
2017-10-19T07:14:38.024Z,1006.56
2017-10-19T07:15:18.581Z,1006.51
2017-10-19T07:15:59.124Z,1006.52
2017-10-19T07:16:39.621Z,1006.54
2017-10-19T07:17:20.124Z,1006.58
2017-10-19T07:18:00.630Z,1006.52
2017-10-19T07:18:41.170Z,1006.56
2017-10-19T07:19:21.705Z,1006.56
2017-10-19T07:20:02.228Z,1006.58
2017-10-19T07:20:42.761Z,1006.59
2017-10-19T07:21:23.305Z,1006.57
2017-10-19T07:22:03.847Z,1006.61
2017-10-19T07:22:44.369Z,1006.63
2017-10-19T07:23:24.886Z,1006.59
2017-10-19T07:24:05.428Z,1006.58
2017-10-19T07:24:45.952Z,1006.63
2017-10-19T07:25:26.473Z,1006.62
2017-10-19T07:26:06.990Z,1006.62
2017-10-19T07:26:47.526Z,1006.61
2017-10-19T07:27:28.059Z,1006.62
2017-10-19T07:28:08.594Z,1006.63
2017-10-19T07:28:49.126Z,1006.65
2017-10-19T07:29:29.640Z,1006.63
2017-10-19T07:30:10.189Z,1006.62
2017-10-19T07:30:50.706Z,1006.62
2017-10-19T07:31:31.247Z,1006.64
2017-10-19T07:32:11.787Z,1006.64
2017-10-19T07:32:52.337Z,1006.62
2017-10-19T07:33:32.944Z,1006.64
2017-10-19T07:34:13.462Z,1006.63
2017-10-19T07:34:54.019Z,1006.6
2017-10-19T07:35:34.550Z,1006.65
2017-10-19T07:36:15.075Z,1006.61
2017-10-19T07:36:55.653Z,1006.62
2017-10-19T07:37:36.158Z,1006.63
2017-10-19T07:38:16.641Z,1006.63
2017-10-19T07:38:57.180Z,1006.62
2017-10-19T07:39:37.699Z,1006.62
2017-10-19T07:40:18.183Z,1006.64
2017-10-19T07:40:58.701Z,1006.68
2017-10-19T07:41:39.163Z,1006.67
2017-10-19T07:42:19.662Z,1006.71
2017-10-19T07:43:00.175Z,1006.67
2017-10-19T07:43:40.678Z,1006.69
2017-10-19T07:44:21.218Z,1006.71
2017-10-19T07:45:01.717Z,1006.71
2017-10-19T07:45:42.226Z,1006.7
2017-10-19T07:46:22.722Z,1006.68
2017-10-19T07:47:03.214Z,1006.69
2017-10-19T07:47:43.731Z,1006.72
2017-10-19T07:48:24.313Z,1006.73
2017-10-19T07:49:04.833Z,1006.72
2017-10-19T07:49:45.305Z,1006.72
2017-10-19T07:50:25.820Z,1006.75
2017-10-19T07:51:06.384Z,1006.73
2017-10-19T07:51:46.859Z,1006.79
2017-10-19T07:52:27.382Z,1006.76
2017-10-19T07:53:07.915Z,1006.79
2017-10-19T07:53:48.447Z,1006.8
2017-10-19T07:54:29.000Z,1006.76
2017-10-19T07:55:09.514Z,1006.84
2017-10-19T07:55:50.047Z,1006.83
2017-10-19T07:56:30.585Z,1006.82
2017-10-19T07:57:11.116Z,1006.84
2017-10-19T07:57:51.742Z,1006.8
2017-10-19T07:58:32.280Z,1006.8
2017-10-19T07:59:12.945Z,1006.8
2017-10-19T07:59:53.477Z,1006.84
2017-10-19T08:00:34.018Z,1006.77
2017-10-19T08:01:14.523Z,1006.8
2017-10-19T08:01:55.021Z,1006.81
2017-10-19T08:02:35.513Z,1006.75
2017-10-19T08:03:16.013Z,1006.78
2017-10-19T08:03:56.545Z,1006.76
2017-10-19T08:04:37.113Z,1006.76
2017-10-19T08:05:17.614Z,1006.77
2017-10-19T08:05:58.147Z,1006.76
2017-10-19T08:06:38.663Z,1006.77
2017-10-19T08:07:19.194Z,1006.81
2017-10-19T08:07:59.729Z,1006.79
2017-10-19T08:08:40.245Z,1006.79
2017-10-19T08:09:20.752Z,1006.78
2017-10-19T08:10:01.275Z,1006.8
2017-10-19T08:10:41.756Z,1006.75
2017-10-19T08:11:22.322Z,1006.75
2017-10-19T08:12:02.877Z,1006.76
2017-10-19T08:12:43.439Z,1006.8